sensor_id;sensor_type;location;lat;lon;timestamp;pressure;altitude;pressure_sealevel;temperature;humidity
54556;BME280;57291;37.520;15.106;2023-05-19T00:02:02;101187.97;;;15.80;81.87
54556;BME280;57291;37.520;15.106;2023-05-19T00:04:35;101192.16;;;15.78;81.37
54556;BME280;57291;37.520;15.106;2023-05-19T00:07:03;101188.09;;;15.75;81.58
54556;BME280;57291;37.520;15.106;2023-05-19T00:09:31;101190.03;;;15.75;81.66
54556;BME280;57291;37.520;15.106;2023-05-19T00:11:59;101184.91;;;15.73;81.74
54556;BME280;57291;37.520;15.106;2023-05-19T00:14:26;101181.66;;;15.71;81.63
54556;BME280;57291;37.520;15.106;2023-05-19T00:16:55;101175.38;;;15.70;81.63
54556;BME280;57291;37.520;15.106;2023-05-19T00:19:24;101180.22;;;15.74;81.60
54556;BME280;57291;37.520;15.106;2023-05-19T00:21:52;101180.38;;;15.77;81.08
54556;BME280;57291;37.520;15.106;2023-05-19T00:24:19;101175.06;;;15.81;80.84
54556;BME280;57291;37.520;15.106;2023-05-19T00:26:46;101174.28;;;15.80;80.75
54556;BME280;57291;37.520;15.106;2023-05-19T00:29:13;101167.50;;;15.78;80.58
54556;BME280;57291;37.520;15.106;2023-05-19T00:31:45;101162.81;;;15.78;80.58
54556;BME280;57291;37.520;15.106;2023-05-19T00:34:12;101159.91;;;15.75;80.70
54556;BME280;57291;37.520;15.106;2023-05-19T00:36:39;101172.63;;;15.70;80.63
54556;BME280;57291;37.520;15.106;2023-05-19T00:39:06;101167.25;;;15.65;80.91
54556;BME280;57291;37.520;15.106;2023-05-19T00:41:34;101159.69;;;15.62;81.36
54556;BME280;57291;37.520;15.106;2023-05-19T00:44:01;101160.31;;;15.59;81.53
54556;BME280;57291;37.520;15.106;2023-05-19T00:46:29;101164.19;;;15.58;81.87
54556;BME280;57291;37.520;15.106;2023-05-19T00:48:56;101157.41;;;15.56;81.89
54556;BME280;57291;37.520;15.106;2023-05-19T00:51:25;101156.59;;;15.55;82.03
54556;BME280;57291;37.520;15.106;2023-05-19T00:53:54;101159.34;;;15.55;82.04
54556;BME280;57291;37.520;15.106;2023-05-19T00:56:22;101155.78;;;15.55;81.90
54556;BME280;57291;37.520;15.106;2023-05-19T00:58:50;101150.16;;;15.51;81.96
54556;BME280;57291;37.520;15.106;2023-05-19T01:01:17;101148.03;;;15.48;81.92
54556;BME280;57291;37.520;15.106;2023-05-19T01:03:48;101151.41;;;15.45;82.09
54556;BME280;57291;37.520;15.106;2023-05-19T01:06:16;101149.31;;;15.42;82.09
54556;BME280;57291;37.520;15.106;2023-05-19T01:08:45;101152.38;;;15.40;82.18
54556;BME280;57291;37.520;15.106;2023-05-19T01:11:12;101148.81;;;15.40;82.36
54556;BME280;57291;37.520;15.106;2023-05-19T01:13:39;101145.59;;;15.38;82.69
54556;BME280;57291;37.520;15.106;2023-05-19T01:18:51;101139.31;;;15.37;82.47
54556;BME280;57291;37.520;15.106;2023-05-19T01:22:06;101147.53;;;15.37;82.52
54556;BME280;57291;37.520;15.106;2023-05-19T01:32:58;101144.00;;;15.37;81.87
54556;BME280;57291;37.520;15.106;2023-05-19T01:35:27;101138.81;;;15.35;81.93
54556;BME280;57291;37.520;15.106;2023-05-19T01:37:58;101139.44;;;15.32;81.77
54556;BME280;57291;37.520;15.106;2023-05-19T01:40:27;101139.78;;;15.31;81.74
54556;BME280;57291;37.520;15.106;2023-05-19T01:42:57;101136.53;;;15.29;81.56
54556;BME280;57291;37.520;15.106;2023-05-19T01:45:27;101134.44;;;15.25;81.47
54556;BME280;57291;37.520;15.106;2023-05-19T01:47:56;101137.97;;;15.26;81.56
54556;BME280;57291;37.520;15.106;2023-05-19T01:50:24;101149.25;;;15.24;81.46
54556;BME280;57291;37.520;15.106;2023-05-19T01:52:52;101139.44;;;15.23;81.52
54556;BME280;57291;37.520;15.106;2023-05-19T01:55:19;101144.09;;;15.23;81.54
54556;BME280;57291;37.520;15.106;2023-05-19T02:06:48;101131.09;;;15.37;79.53
54556;BME280;57291;37.520;15.106;2023-05-19T02:09:40;101136.75;;;15.41;78.87
54556;BME280;57291;37.520;15.106;2023-05-19T02:12:18;101132.38;;;15.40;78.82
54556;BME280;57291;37.520;15.106;2023-05-19T02:14:54;101131.28;;;15.41;78.83
54556;BME280;57291;37.520;15.106;2023-05-19T02:17:26;101125.00;;;15.40;78.83
54556;BME280;57291;37.520;15.106;2023-05-19T02:19:55;101122.09;;;15.37;78.95
54556;BME280;57291;37.520;15.106;2023-05-19T02:22:22;101115.47;;;15.38;79.21
54556;BME280;57291;37.520;15.106;2023-05-19T02:24:50;101107.59;;;15.45;79.25
54556;BME280;57291;37.520;15.106;2023-05-19T02:27:17;101113.41;;;15.52;78.99
54556;BME280;57291;37.520;15.106;2023-05-19T02:29:44;101117.28;;;15.51;78.70
54556;BME280;57291;37.520;15.106;2023-05-19T02:32:12;101106.47;;;15.46;78.68
54556;BME280;57291;37.520;15.106;2023-05-19T02:34:39;101111.47;;;15.44;79.05
54556;BME280;57291;37.520;15.106;2023-05-19T02:37:13;101108.09;;;15.47;79.12
54556;BME280;57291;37.520;15.106;2023-05-19T02:39:41;101111.97;;;15.55;78.38
54556;BME280;57291;37.520;15.106;2023-05-19T02:42:08;101118.47;;;15.67;77.70
54556;BME280;57291;37.520;15.106;2023-05-19T02:44:36;101103.66;;;15.77;76.90
54556;BME280;57291;37.520;15.106;2023-05-19T02:47:03;101106.88;;;15.79;76.83
54556;BME280;57291;37.520;15.106;2023-05-19T02:49:31;101106.41;;;15.77;76.79
54556;BME280;57291;37.520;15.106;2023-05-19T02:52:02;101110.25;;;15.85;76.11
54556;BME280;57291;37.520;15.106;2023-05-19T02:54:30;101103.84;;;15.89;75.68
54556;BME280;57291;37.520;15.106;2023-05-19T02:56:58;101104.31;;;15.91;75.39
54556;BME280;57291;37.520;15.106;2023-05-19T02:59:25;101100.63;;;15.96;74.60
54556;BME280;57291;37.520;15.106;2023-05-19T03:01:59;101097.22;;;15.99;74.36
54556;BME280;57291;37.520;15.106;2023-05-19T03:04:27;101083.03;;;15.97;73.66
54556;BME280;57291;37.520;15.106;2023-05-19T03:06:55;101077.06;;;16.04;73.29
54556;BME280;57291;37.520;15.106;2023-05-19T03:09:23;101087.84;;;16.09;72.58
54556;BME280;57291;37.520;15.106;2023-05-19T03:11:50;101091.72;;;16.08;72.53
54556;BME280;57291;37.520;15.106;2023-05-19T03:14:17;101095.25;;;16.08;72.72
54556;BME280;57291;37.520;15.106;2023-05-19T03:16:50;101092.22;;;16.10;72.76
54556;BME280;57291;37.520;15.106;2023-05-19T03:19:18;101091.06;;;16.11;72.40
54556;BME280;57291;37.520;15.106;2023-05-19T03:21:45;101100.59;;;16.13;72.13
54556;BME280;57291;37.520;15.106;2023-05-19T03:24:13;101100.09;;;16.11;71.94
54556;BME280;57291;37.520;15.106;2023-05-19T03:26:40;101091.06;;;16.11;71.25
54556;BME280;57291;37.520;15.106;2023-05-19T03:29:08;101092.84;;;16.15;70.91
54556;BME280;57291;37.520;15.106;2023-05-19T03:31:36;101087.69;;;16.23;70.48
54556;BME280;57291;37.520;15.106;2023-05-19T03:34:04;101086.56;;;16.24;70.71
54556;BME280;57291;37.520;15.106;2023-05-19T03:36:31;101088.16;;;16.33;69.64
54556;BME280;57291;37.520;15.106;2023-05-19T03:38:59;101086.38;;;16.37;69.57
54556;BME280;57291;37.520;15.106;2023-05-19T03:41:27;101093.00;;;16.36;69.43
54556;BME280;57291;37.520;15.106;2023-05-19T03:43:55;101084.91;;;16.40;69.34
54556;BME280;57291;37.520;15.106;2023-05-19T03:46:22;101089.75;;;16.43;69.10
54556;BME280;57291;37.520;15.106;2023-05-19T03:48:49;101084.72;;;16.62;68.33
54556;BME280;57291;37.520;15.106;2023-05-19T03:51:30;101093.72;;;16.72;68.85
54556;BME280;57291;37.520;15.106;2023-05-19T03:54:05;101093.38;;;16.73;68.69
54556;BME280;57291;37.520;15.106;2023-05-19T03:56:33;101099.84;;;16.77;68.73
54556;BME280;57291;37.520;15.106;2023-05-19T03:59:00;101105.69;;;16.76;68.15
54556;BME280;57291;37.520;15.106;2023-05-19T04:01:27;101110.53;;;16.79;68.01
54556;BME280;57291;37.520;15.106;2023-05-19T04:03:56;101111.19;;;16.76;68.07
54556;BME280;57291;37.520;15.106;2023-05-19T04:06:23;101110.03;;;16.77;67.56
54556;BME280;57291;37.520;15.106;2023-05-19T04:08:52;101110.84;;;16.77;67.41
54556;BME280;57291;37.520;15.106;2023-05-19T04:11:19;101118.09;;;16.82;67.52
54556;BME280;57291;37.520;15.106;2023-05-19T04:13:47;101120.03;;;16.81;67.39
54556;BME280;57291;37.520;15.106;2023-05-19T04:16:14;101119.84;;;16.86;67.72
54556;BME280;57291;37.520;15.106;2023-05-19T04:18:41;101124.41;;;16.82;68.27
54556;BME280;57291;37.520;15.106;2023-05-19T04:21:11;101136.00;;;16.88;68.34
54556;BME280;57291;37.520;15.106;2023-05-19T04:23:38;101131.47;;;16.92;67.68
54556;BME280;57291;37.520;15.106;2023-05-19T04:26:05;101126.59;;;16.98;66.87
54556;BME280;57291;37.520;15.106;2023-05-19T04:28:32;101140.94;;;17.03;67.21
54556;BME280;57291;37.520;15.106;2023-05-19T04:31:02;101148.03;;;17.04;66.93
54556;BME280;57291;37.520;15.106;2023-05-19T04:33:29;101160.00;;;17.08;67.02
54556;BME280;57291;37.520;15.106;2023-05-19T04:35:56;101170.00;;;17.13;66.71
54556;BME280;57291;37.520;15.106;2023-05-19T04:38:24;101172.22;;;17.20;66.52
54556;BME280;57291;37.520;15.106;2023-05-19T04:40:51;101177.56;;;17.25;67.29
54556;BME280;57291;37.520;15.106;2023-05-19T04:43:19;101184.00;;;17.29;68.20
54556;BME280;57291;37.520;15.106;2023-05-19T04:45:49;101189.50;;;17.29;69.00
54556;BME280;57291;37.520;15.106;2023-05-19T04:48:19;101195.94;;;17.33;69.30
54556;BME280;57291;37.520;15.106;2023-05-19T04:50:49;101203.38;;;17.32;69.01
54556;BME280;57291;37.520;15.106;2023-05-19T04:53:18;101207.22;;;17.40;69.39
54556;BME280;57291;37.520;15.106;2023-05-19T04:55:47;101215.75;;;17.47;69.93
54556;BME280;57291;37.520;15.106;2023-05-19T04:58:16;101212.66;;;17.57;69.42
54556;BME280;57291;37.520;15.106;2023-05-19T05:00:45;101197.25;;;17.65;69.97
54556;BME280;57291;37.520;15.106;2023-05-19T05:03:12;101192.41;;;17.62;70.88
54556;BME280;57291;37.520;15.106;2023-05-19T05:05:40;101204.31;;;17.75;70.26
54556;BME280;57291;37.520;15.106;2023-05-19T05:08:09;101207.19;;;17.87;70.13
54556;BME280;57291;37.520;15.106;2023-05-19T05:10:41;101222.75;;;18.04;70.50
54556;BME280;57291;37.520;15.106;2023-05-19T05:13:08;101222.97;;;18.20;71.68
54556;BME280;57291;37.520;15.106;2023-05-19T05:15:38;101216.59;;;18.28;72.96
54556;BME280;57291;37.520;15.106;2023-05-19T05:18:06;101211.72;;;18.34;73.78
54556;BME280;57291;37.520;15.106;2023-05-19T05:20:34;101228.25;;;18.67;72.84
54556;BME280;57291;37.520;15.106;2023-05-19T05:23:01;101245.63;;;19.01;72.20
54556;BME280;57291;37.520;15.106;2023-05-19T05:25:30;101245.00;;;19.28;71.66
54556;BME280;57291;37.520;15.106;2023-05-19T05:27:58;101242.66;;;19.63;70.40
54556;BME280;57291;37.520;15.106;2023-05-19T05:30:33;101229.19;;;20.11;70.05
54556;BME280;57291;37.520;15.106;2023-05-19T05:33:02;101235.50;;;20.64;68.75
54556;BME280;57291;37.520;15.106;2023-05-19T05:35:35;101255.56;;;21.05;67.18
54556;BME280;57291;37.520;15.106;2023-05-19T05:38:05;101258.53;;;21.28;67.16
54556;BME280;57291;37.520;15.106;2023-05-19T05:40:33;101248.16;;;21.09;67.61
54556;BME280;57291;37.520;15.106;2023-05-19T05:43:02;101246.56;;;20.64;69.61
54556;BME280;57291;37.520;15.106;2023-05-19T05:45:33;101236.38;;;20.40;71.19
54556;BME280;57291;37.520;15.106;2023-05-19T05:48:00;101233.28;;;20.29;71.32
54556;BME280;57291;37.520;15.106;2023-05-19T05:50:29;101242.13;;;20.75;70.43
54556;BME280;57291;37.520;15.106;2023-05-19T05:52:59;101246.41;;;21.17;69.05
54556;BME280;57291;37.520;15.106;2023-05-19T05:55:27;101250.22;;;21.12;68.37
54556;BME280;57291;37.520;15.106;2023-05-19T05:57:55;101238.16;;;21.33;68.47
54556;BME280;57291;37.520;15.106;2023-05-19T06:00:22;101244.47;;;21.65;66.96
54556;BME280;57291;37.520;15.106;2023-05-19T06:02:51;101253.00;;;22.07;64.95
54556;BME280;57291;37.520;15.106;2023-05-19T06:05:19;101241.03;;;22.19;65.07
54556;BME280;57291;37.520;15.106;2023-05-19T06:07:47;101244.41;;;21.61;66.85
54556;BME280;57291;37.520;15.106;2023-05-19T06:10:20;101233.06;;;21.66;66.13
54556;BME280;57291;37.520;15.106;2023-05-19T06:12:48;101231.00;;;21.95;65.31
54556;BME280;57291;37.520;15.106;2023-05-19T06:15:15;101229.25;;;22.06;63.96
54556;BME280;57291;37.520;15.106;2023-05-19T06:18:00;101224.28;;;21.96;64.73
54556;BME280;57291;37.520;15.106;2023-05-19T06:20:28;101232.28;;;22.01;63.74
54556;BME280;57291;37.520;15.106;2023-05-19T06:22:55;101219.56;;;22.32;62.35
54556;BME280;57291;37.520;15.106;2023-05-19T06:25:25;101221.28;;;22.79;60.45
54556;BME280;57291;37.520;15.106;2023-05-19T06:27:52;101201.69;;;22.68;59.50
54556;BME280;57291;37.520;15.106;2023-05-19T06:30:21;101215.19;;;22.50;58.77
54556;BME280;57291;37.520;15.106;2023-05-19T06:33:01;101208.69;;;22.23;58.85
54556;BME280;57291;37.520;15.106;2023-05-19T06:35:29;101205.78;;;22.00;60.88
54556;BME280;57291;37.520;15.106;2023-05-19T06:37:57;101188.59;;;22.26;60.29
54556;BME280;57291;37.520;15.106;2023-05-19T06:40:24;101205.41;;;22.37;59.71
54556;BME280;57291;37.520;15.106;2023-05-19T06:42:52;101205.78;;;22.74;59.70
54556;BME280;57291;37.520;15.106;2023-05-19T06:45:27;101208.81;;;23.08;57.84
54556;BME280;57291;37.520;15.106;2023-05-19T06:47:57;101213.94;;;23.78;56.60
54556;BME280;57291;37.520;15.106;2023-05-19T06:50:24;101218.84;;;23.16;57.01
54556;BME280;57291;37.520;15.106;2023-05-19T06:52:53;101215.38;;;23.00;57.02
54556;BME280;57291;37.520;15.106;2023-05-19T06:55:20;101214.44;;;22.34;59.73
54556;BME280;57291;37.520;15.106;2023-05-19T06:57:48;101214.69;;;22.09;62.98
54556;BME280;57291;37.520;15.106;2023-05-19T07:00:17;101220.16;;;22.21;64.36
54556;BME280;57291;37.520;15.106;2023-05-19T07:02:50;101209.88;;;22.06;63.73
54556;BME280;57291;37.520;15.106;2023-05-19T07:05:18;101207.81;;;22.19;64.74
54556;BME280;57291;37.520;15.106;2023-05-19T07:07:50;101212.41;;;21.95;64.97
54556;BME280;57291;37.520;15.106;2023-05-19T07:10:21;101204.22;;;21.83;65.99
54556;BME280;57291;37.520;15.106;2023-05-19T07:12:49;101198.56;;;21.60;64.98
54556;BME280;57291;37.520;15.106;2023-05-19T07:15:19;101208.41;;;21.93;63.32
54556;BME280;57291;37.520;15.106;2023-05-19T07:17:46;101218.50;;;21.85;65.16
54556;BME280;57291;37.520;15.106;2023-05-19T07:20:14;101215.22;;;21.80;66.53
54556;BME280;57291;37.520;15.106;2023-05-19T07:22:41;101209.84;;;21.87;65.00
54556;BME280;57291;37.520;15.106;2023-05-19T07:25:09;101207.97;;;21.75;63.78
54556;BME280;57291;37.520;15.106;2023-05-19T07:27:37;101214.97;;;21.69;65.06
54556;BME280;57291;37.520;15.106;2023-05-19T07:30:05;101205.25;;;21.59;65.44
54556;BME280;57291;37.520;15.106;2023-05-19T07:32:32;101216.00;;;21.17;67.39
54556;BME280;57291;37.520;15.106;2023-05-19T07:35:00;101213.31;;;21.04;66.46
54556;BME280;57291;37.520;15.106;2023-05-19T07:37:27;101196.34;;;20.74;68.57
54556;BME280;57291;37.520;15.106;2023-05-19T07:39:54;101201.97;;;20.37;70.22
54556;BME280;57291;37.520;15.106;2023-05-19T07:42:21;101200.53;;;20.15;70.06
54556;BME280;57291;37.520;15.106;2023-05-19T07:44:48;101210.41;;;20.29;70.72
54556;BME280;57291;37.520;15.106;2023-05-19T07:47:17;101215.50;;;20.02;72.01
54556;BME280;57291;37.520;15.106;2023-05-19T07:49:44;101203.69;;;19.77;73.93
54556;BME280;57291;37.520;15.106;2023-05-19T07:52:11;101213.59;;;19.66;75.58
54556;BME280;57291;37.520;15.106;2023-05-19T07:54:38;101215.63;;;19.57;76.50
54556;BME280;57291;37.520;15.106;2023-05-19T07:57:06;101214.50;;;19.58;77.15
54556;BME280;57291;37.520;15.106;2023-05-19T07:59:33;101210.59;;;19.59;77.55
54556;BME280;57291;37.520;15.106;2023-05-19T08:02:00;101195.19;;;19.70;77.42
54556;BME280;57291;37.520;15.106;2023-05-19T08:04:27;101204.28;;;19.58;78.42
54556;BME280;57291;37.520;15.106;2023-05-19T08:06:54;101206.31;;;19.49;79.32
54556;BME280;57291;37.520;15.106;2023-05-19T08:09:21;101208.25;;;19.36;80.28
54556;BME280;57291;37.520;15.106;2023-05-19T08:11:49;101207.69;;;19.31;80.83
54556;BME280;57291;37.520;15.106;2023-05-19T08:14:16;101195.88;;;19.42;80.40
54556;BME280;57291;37.520;15.106;2023-05-19T08:16:43;101183.69;;;19.43;79.61
54556;BME280;57291;37.520;15.106;2023-05-19T08:19:11;101178.66;;;19.70;78.93
54556;BME280;57291;37.520;15.106;2023-05-19T08:21:39;101181.13;;;20.00;77.83
54556;BME280;57291;37.520;15.106;2023-05-19T08:24:08;101183.09;;;20.39;76.06
54556;BME280;57291;37.520;15.106;2023-05-19T08:26:35;101183.78;;;20.77;73.54
54556;BME280;57291;37.520;15.106;2023-05-19T08:29:03;101181.47;;;20.95;73.13
54556;BME280;57291;37.520;15.106;2023-05-19T08:31:31;101178.91;;;21.18;72.04
54556;BME280;57291;37.520;15.106;2023-05-19T08:33:58;101189.25;;;21.05;72.38
54556;BME280;57291;37.520;15.106;2023-05-19T08:36:25;101197.38;;;21.29;71.55
54556;BME280;57291;37.520;15.106;2023-05-19T08:38:53;101194.34;;;21.03;72.34
54556;BME280;57291;37.520;15.106;2023-05-19T08:41:20;101196.19;;;20.55;73.55
54556;BME280;57291;37.520;15.106;2023-05-19T08:43:49;101193.25;;;20.35;75.10
54556;BME280;57291;37.520;15.106;2023-05-19T08:46:16;101202.47;;;20.27;75.38
54556;BME280;57291;37.520;15.106;2023-05-19T08:48:46;101193.88;;;20.57;75.16
54556;BME280;57291;37.520;15.106;2023-05-19T08:54:14;101197.22;;;21.22;72.85
54556;BME280;57291;37.520;15.106;2023-05-19T08:56:42;101194.44;;;21.38;70.98
54556;BME280;57291;37.520;15.106;2023-05-19T08:59:14;101185.34;;;21.53;71.23
54556;BME280;57291;37.520;15.106;2023-05-19T09:01:43;101172.78;;;21.56;70.52
54556;BME280;57291;37.520;15.106;2023-05-19T09:04:12;101181.78;;;21.69;69.38
54556;BME280;57291;37.520;15.106;2023-05-19T09:06:40;101179.41;;;21.87;68.88
54556;BME280;57291;37.520;15.106;2023-05-19T09:09:08;101203.28;;;21.75;68.38
54556;BME280;57291;37.520;15.106;2023-05-19T09:11:35;101195.69;;;21.72;67.90
54556;BME280;57291;37.520;15.106;2023-05-19T09:14:04;101195.88;;;21.64;68.86
54556;BME280;57291;37.520;15.106;2023-05-19T09:16:31;101190.50;;;21.55;68.96
54556;BME280;57291;37.520;15.106;2023-05-19T09:18:59;101187.41;;;21.41;70.41
54556;BME280;57291;37.520;15.106;2023-05-19T09:21:28;101191.41;;;21.27;71.20
54556;BME280;57291;37.520;15.106;2023-05-19T09:24:06;101197.53;;;21.05;71.59
54556;BME280;57291;37.520;15.106;2023-05-19T09:26:41;101190.53;;;21.23;71.79
54556;BME280;57291;37.520;15.106;2023-05-19T09:29:15;101203.94;;;21.09;72.89
54556;BME280;57291;37.520;15.106;2023-05-19T09:31:47;101209.69;;;21.16;73.33
54556;BME280;57291;37.520;15.106;2023-05-19T09:34:16;101205.91;;;21.08;73.44
54556;BME280;57291;37.520;15.106;2023-05-19T09:36:45;101199.22;;;20.94;73.69
54556;BME280;57291;37.520;15.106;2023-05-19T09:39:16;101208.88;;;20.72;73.64
54556;BME280;57291;37.520;15.106;2023-05-19T09:41:44;101212.75;;;20.83;74.20
54556;BME280;57291;37.520;15.106;2023-05-19T09:44:22;101213.84;;;20.94;73.74
54556;BME280;57291;37.520;15.106;2023-05-19T09:46:50;101215.06;;;21.41;71.95
54556;BME280;57291;37.520;15.106;2023-05-19T09:49:20;101204.44;;;21.27;73.31
54556;BME280;57291;37.520;15.106;2023-05-19T09:51:56;101183.06;;;21.40;73.17
54556;BME280;57291;37.520;15.106;2023-05-19T09:54:24;101171.00;;;21.16;72.77
54556;BME280;57291;37.520;15.106;2023-05-19T09:56:58;101168.44;;;21.39;71.72
54556;BME280;57291;37.520;15.106;2023-05-19T09:59:27;101177.06;;;21.53;70.35
54556;BME280;57291;37.520;15.106;2023-05-19T10:02:00;101165.00;;;21.14;70.60
54556;BME280;57291;37.520;15.106;2023-05-19T10:04:28;101146.28;;;20.92;71.78
54556;BME280;57291;37.520;15.106;2023-05-19T10:06:57;101142.50;;;20.68;72.67
54556;BME280;57291;37.520;15.106;2023-05-19T10:09:32;101159.72;;;20.77;72.86
54556;BME280;57291;37.520;15.106;2023-05-19T10:12:03;101161.28;;;20.63;73.02
54556;BME280;57291;37.520;15.106;2023-05-19T10:14:31;101176.28;;;20.77;72.49
54556;BME280;57291;37.520;15.106;2023-05-19T10:16:58;101174.09;;;20.83;73.06
54556;BME280;57291;37.520;15.106;2023-05-19T10:19:27;101174.88;;;20.83;73.42
54556;BME280;57291;37.520;15.106;2023-05-19T10:21:55;101170.44;;;20.95;72.71
54556;BME280;57291;37.520;15.106;2023-05-19T10:24:22;101166.72;;;21.03;73.42
54556;BME280;57291;37.520;15.106;2023-05-19T10:27:06;101171.16;;;21.07;71.79
54556;BME280;57291;37.520;15.106;2023-05-19T10:29:36;101183.47;;;20.66;73.30
54556;BME280;57291;37.520;15.106;2023-05-19T10:32:22;101216.41;;;20.59;74.29
54556;BME280;57291;37.520;15.106;2023-05-19T10:40:36;101249.53;;;20.19;76.46
54556;BME280;57291;37.520;15.106;2023-05-19T10:46:05;101238.13;;;20.20;75.84
54556;BME280;57291;37.520;15.106;2023-05-19T10:48:33;101224.91;;;20.13;75.37
54556;BME280;57291;37.520;15.106;2023-05-19T10:51:02;101205.97;;;20.00;76.46
54556;BME280;57291;37.520;15.106;2023-05-19T10:53:31;101196.69;;;20.32;75.77
54556;BME280;57291;37.520;15.106;2023-05-19T10:56:00;101197.72;;;20.40;75.47
54556;BME280;57291;37.520;15.106;2023-05-19T11:01:13;101192.38;;;20.59;73.36
54556;BME280;57291;37.520;15.106;2023-05-19T11:03:54;101182.59;;;20.50;74.42
54556;BME280;57291;37.520;15.106;2023-05-19T11:06:27;101192.34;;;20.88;72.34
54556;BME280;57291;37.520;15.106;2023-05-19T11:09:14;101186.41;;;21.01;70.58
54556;BME280;57291;37.520;15.106;2023-05-19T11:11:52;101204.06;;;20.69;71.69
54556;BME280;57291;37.520;15.106;2023-05-19T11:14:21;101212.81;;;20.71;71.87
54556;BME280;57291;37.520;15.106;2023-05-19T11:16:51;101213.31;;;20.60;71.36
54556;BME280;57291;37.520;15.106;2023-05-19T11:19:25;101204.78;;;20.25;71.74
54556;BME280;57291;37.520;15.106;2023-05-19T11:21:53;101213.53;;;20.27;72.83
54556;BME280;57291;37.520;15.106;2023-05-19T11:24:47;101192.94;;;20.25;72.83
54556;BME280;57291;37.520;15.106;2023-05-19T11:27:33;101198.50;;;20.00;72.60
54556;BME280;57291;37.520;15.106;2023-05-19T11:30:10;101183.94;;;19.87;73.54
54556;BME280;57291;37.520;15.106;2023-05-19T11:32:40;101178.78;;;19.74;74.00
54556;BME280;57291;37.520;15.106;2023-05-19T11:35:09;101182.31;;;19.74;73.43
54556;BME280;57291;37.520;15.106;2023-05-19T11:37:36;101183.00;;;19.83;73.51
54556;BME280;57291;37.520;15.106;2023-05-19T11:40:06;101181.13;;;20.00;73.30
54556;BME280;57291;37.520;15.106;2023-05-19T11:42:35;101162.03;;;20.07;71.33
54556;BME280;57291;37.520;15.106;2023-05-19T11:45:03;101158.59;;;20.10;71.41
54556;BME280;57291;37.520;15.106;2023-05-19T11:47:31;101162.63;;;20.41;71.47
54556;BME280;57291;37.520;15.106;2023-05-19T11:50:17;101158.84;;;20.73;69.71
54556;BME280;57291;37.520;15.106;2023-05-19T11:52:46;101147.69;;;20.70;68.96
54556;BME280;57291;37.520;15.106;2023-05-19T11:55:15;101155.28;;;20.32;69.26
54556;BME280;57291;37.520;15.106;2023-05-19T11:58:02;101156.66;;;20.10;69.54
54556;BME280;57291;37.520;15.106;2023-05-19T12:00:38;101149.81;;;20.48;68.61
54556;BME280;57291;37.520;15.106;2023-05-19T12:03:06;101145.03;;;20.73;68.34
54556;BME280;57291;37.520;15.106;2023-05-19T12:05:42;101133.72;;;20.50;69.40
54556;BME280;57291;37.520;15.106;2023-05-19T12:08:11;101134.94;;;20.37;70.52
54556;BME280;57291;37.520;15.106;2023-05-19T12:10:39;101127.25;;;20.30;69.72
54556;BME280;57291;37.520;15.106;2023-05-19T12:13:06;101137.09;;;20.44;69.67
54556;BME280;57291;37.520;15.106;2023-05-19T12:15:36;101134.78;;;20.18;69.95
54556;BME280;57291;37.520;15.106;2023-05-19T12:18:05;101132.63;;;20.11;70.80
54556;BME280;57291;37.520;15.106;2023-05-19T12:20:32;101130.97;;;20.22;70.71
54556;BME280;57291;37.520;15.106;2023-05-19T12:23:02;101123.47;;;19.95;71.84
54556;BME280;57291;37.520;15.106;2023-05-19T12:25:30;101128.44;;;19.77;73.38
54556;BME280;57291;37.520;15.106;2023-05-19T12:27:59;101122.25;;;19.67;73.92
54556;BME280;57291;37.520;15.106;2023-05-19T12:30:30;101116.81;;;19.83;73.71
54556;BME280;57291;37.520;15.106;2023-05-19T12:33:00;101104.31;;;19.74;73.58
54556;BME280;57291;37.520;15.106;2023-05-19T12:35:29;101115.00;;;19.63;74.21
54556;BME280;57291;37.520;15.106;2023-05-19T12:38:08;101116.13;;;19.86;73.30
54556;BME280;57291;37.520;15.106;2023-05-19T12:40:35;101108.09;;;19.81;73.74
54556;BME280;57291;37.520;15.106;2023-05-19T12:43:06;101094.22;;;19.65;74.32
54556;BME280;57291;37.520;15.106;2023-05-19T12:45:35;101095.28;;;19.36;75.56
54556;BME280;57291;37.520;15.106;2023-05-19T12:48:04;101093.69;;;19.35;75.66
54556;BME280;57291;37.520;15.106;2023-05-19T12:50:32;101088.84;;;19.32;76.11
54556;BME280;57291;37.520;15.106;2023-05-19T12:53:00;101092.53;;;19.12;77.46
54556;BME280;57291;37.520;15.106;2023-05-19T12:55:28;101093.34;;;19.12;78.42
54556;BME280;57291;37.520;15.106;2023-05-19T12:57:56;101108.00;;;19.04;78.17
54556;BME280;57291;37.520;15.106;2023-05-19T13:00:24;101102.84;;;19.03;77.98
54556;BME280;57291;37.520;15.106;2023-05-19T13:05:32;101100.53;;;19.05;77.88
54556;BME280;57291;37.520;15.106;2023-05-19T13:08:11;101092.19;;;19.26;78.04
54556;BME280;57291;37.520;15.106;2023-05-19T13:10:40;101089.97;;;19.31;77.74
54556;BME280;57291;37.520;15.106;2023-05-19T13:13:08;101103.09;;;19.22;78.31
54556;BME280;57291;37.520;15.106;2023-05-19T13:15:38;101077.94;;;19.11;77.44
54556;BME280;57291;37.520;15.106;2023-05-19T13:18:08;101066.47;;;18.97;77.92
54556;BME280;57291;37.520;15.106;2023-05-19T13:20:36;101073.91;;;18.84;79.09
54556;BME280;57291;37.520;15.106;2023-05-19T13:23:04;101084.69;;;18.77;79.39
54556;BME280;57291;37.520;15.106;2023-05-19T13:25:32;101070.38;;;18.96;79.25
54556;BME280;57291;37.520;15.106;2023-05-19T13:28:03;101067.03;;;19.15;78.56
54556;BME280;57291;37.520;15.106;2023-05-19T13:30:33;101068.50;;;19.25;78.79